sensor_id;sensor_type;location;lat;lon;timestamp;temperature;humidity
9057;DHT22;4563;54.756;9.400;2022-11-27T00:02:09;10.10;82.00
9057;DHT22;4563;54.756;9.400;2022-11-27T00:04:36;10.10;82.00
9057;DHT22;4563;54.756;9.400;2022-11-27T00:07:03;10.10;82.00
9057;DHT22;4563;54.756;9.400;2022-11-27T00:09:31;10.10;81.90
9057;DHT22;4563;54.756;9.400;2022-11-27T00:11:58;10.10;82.00
9057;DHT22;4563;54.756;9.400;2022-11-27T00:14:25;10.10;81.90
9057;DHT22;4563;54.756;9.400;2022-11-27T00:16:52;10.10;82.00
9057;DHT22;4563;54.756;9.400;2022-11-27T00:19:19;10.10;81.90
9057;DHT22;4563;54.756;9.400;2022-11-27T00:21:46;10.10;82.00
9057;DHT22;4563;54.756;9.400;2022-11-27T00:24:13;10.10;81.90
9057;DHT22;4563;54.756;9.400;2022-11-27T00:26:41;10.10;81.90
9057;DHT22;4563;54.756;9.400;2022-11-27T00:29:08;10.10;81.80
9057;DHT22;4563;54.756;9.400;2022-11-27T00:31:35;10.10;81.90
9057;DHT22;4563;54.756;9.400;2022-11-27T00:34:05;10.10;82.00
9057;DHT22;4563;54.756;9.400;2022-11-27T00:36:33;10.10;82.00
9057;DHT22;4563;54.756;9.400;2022-11-27T00:39:00;10.10;82.00
9057;DHT22;4563;54.756;9.400;2022-11-27T00:41:28;10.10;82.00
9057;DHT22;4563;54.756;9.400;2022-11-27T00:43:57;10.10;82.00
9057;DHT22;4563;54.756;9.400;2022-11-27T00:46:31;10.10;81.90
9057;DHT22;4563;54.756;9.400;2022-11-27T00:48:59;10.10;82.00
9057;DHT22;4563;54.756;9.400;2022-11-27T00:51:27;10.20;82.10
9057;DHT22;4563;54.756;9.400;2022-11-27T00:53:54;10.20;82.00
9057;DHT22;4563;54.756;9.400;2022-11-27T00:56:23;10.20;82.00
9057;DHT22;4563;54.756;9.400;2022-11-27T00:58:51;10.20;82.10
9057;DHT22;4563;54.756;9.400;2022-11-27T01:01:21;10.20;82.00
9057;DHT22;4563;54.756;9.400;2022-11-27T01:03:48;10.20;82.10
9057;DHT22;4563;54.756;9.400;2022-11-27T01:06:17;10.20;82.10
9057;DHT22;4563;54.756;9.400;2022-11-27T01:08:44;10.20;82.10
9057;DHT22;4563;54.756;9.400;2022-11-27T01:11:17;10.20;82.00
9057;DHT22;4563;54.756;9.400;2022-11-27T01:13:44;10.20;82.00
9057;DHT22;4563;54.756;9.400;2022-11-27T01:16:12;10.20;82.00
9057;DHT22;4563;54.756;9.400;2022-11-27T01:18:42;10.20;81.90
9057;DHT22;4563;54.756;9.400;2022-11-27T01:21:10;10.20;82.10
9057;DHT22;4563;54.756;9.400;2022-11-27T01:23:38;10.20;82.10
9057;DHT22;4563;54.756;9.400;2022-11-27T01:26:08;10.20;82.10
9057;DHT22;4563;54.756;9.400;2022-11-27T01:28:35;10.20;82.10
9057;DHT22;4563;54.756;9.400;2022-11-27T01:31:05;10.20;82.00
9057;DHT22;4563;54.756;9.400;2022-11-27T01:33:33;10.20;82.10
9057;DHT22;4563;54.756;9.400;2022-11-27T01:36:03;10.20;82.00
9057;DHT22;4563;54.756;9.400;2022-11-27T01:38:31;10.20;82.10
9057;DHT22;4563;54.756;9.400;2022-11-27T01:40:59;10.30;82.20
9057;DHT22;4563;54.756;9.400;2022-11-27T01:43:39;10.20;82.00
9057;DHT22;4563;54.756;9.400;2022-11-27T01:46:12;10.20;81.60
9057;DHT22;4563;54.756;9.400;2022-11-27T01:48:43;10.20;81.90
9057;DHT22;4563;54.756;9.400;2022-11-27T01:51:11;10.20;82.00
9057;DHT22;4563;54.756;9.400;2022-11-27T01:53:38;10.20;82.00
9057;DHT22;4563;54.756;9.400;2022-11-27T01:56:06;10.20;82.00
9057;DHT22;4563;54.756;9.400;2022-11-27T01:58:34;10.20;82.10
9057;DHT22;4563;54.756;9.400;2022-11-27T02:01:02;10.20;82.00
9057;DHT22;4563;54.756;9.400;2022-11-27T02:03:29;10.20;81.90
9057;DHT22;4563;54.756;9.400;2022-11-27T02:05:57;10.20;81.80
9057;DHT22;4563;54.756;9.400;2022-11-27T02:08:25;10.20;82.00
9057;DHT22;4563;54.756;9.400;2022-11-27T02:10:55;10.20;81.90
9057;DHT22;4563;54.756;9.400;2022-11-27T02:13:28;10.20;81.90
9057;DHT22;4563;54.756;9.400;2022-11-27T02:16:02;10.20;81.80
9057;DHT22;4563;54.756;9.400;2022-11-27T02:18:37;10.20;81.90
9057;DHT22;4563;54.756;9.400;2022-11-27T02:21:12;10.10;81.30
9057;DHT22;4563;54.756;9.400;2022-11-27T02:27:15;10.10;81.60
9057;DHT22;4563;54.756;9.400;2022-11-27T02:29:47;10.10;81.50
9057;DHT22;4563;54.756;9.400;2022-11-27T02:32:20;10.10;81.70
9057;DHT22;4563;54.756;9.400;2022-11-27T02:34:53;10.20;81.80
9057;DHT22;4563;54.756;9.400;2022-11-27T02:37:25;10.10;81.70
9057;DHT22;4563;54.756;9.400;2022-11-27T02:39:59;10.10;81.60
9057;DHT22;4563;54.756;9.400;2022-11-27T02:42:29;10.10;81.70
9057;DHT22;4563;54.756;9.400;2022-11-27T02:45:00;10.10;81.60
9057;DHT22;4563;54.756;9.400;2022-11-27T02:47:29;10.10;81.60
9057;DHT22;4563;54.756;9.400;2022-11-27T02:49:56;10.10;81.80
9057;DHT22;4563;54.756;9.400;2022-11-27T02:52:25;10.10;82.60
9057;DHT22;4563;54.756;9.400;2022-11-27T02:54:55;10.10;81.70
9057;DHT22;4563;54.756;9.400;2022-11-27T02:57:24;10.10;81.90
9057;DHT22;4563;54.756;9.400;2022-11-27T02:59:53;10.10;81.70
9057;DHT22;4563;54.756;9.400;2022-11-27T03:02:26;10.10;81.90
9057;DHT22;4563;54.756;9.400;2022-11-27T03:04:56;10.10;81.70
9057;DHT22;4563;54.756;9.400;2022-11-27T03:07:29;10.10;81.80
9057;DHT22;4563;54.756;9.400;2022-11-27T03:09:59;10.10;82.40
9057;DHT22;4563;54.756;9.400;2022-11-27T03:12:27;10.10;81.70
9057;DHT22;4563;54.756;9.400;2022-11-27T03:14:54;10.10;81.70
9057;DHT22;4563;54.756;9.400;2022-11-27T03:17:34;10.10;81.70
9057;DHT22;4563;54.756;9.400;2022-11-27T03:20:08;10.10;81.40
9057;DHT22;4563;54.756;9.400;2022-11-27T03:22:36;10.10;81.70
9057;DHT22;4563;54.756;9.400;2022-11-27T03:25:04;10.10;81.80
9057;DHT22;4563;54.756;9.400;2022-11-27T03:27:33;10.10;81.80
9057;DHT22;4563;54.756;9.400;2022-11-27T03:30:03;10.10;81.80
9057;DHT22;4563;54.756;9.400;2022-11-27T03:32:32;10.10;81.80
9057;DHT22;4563;54.756;9.400;2022-11-27T03:34:59;10.10;81.90
9057;DHT22;4563;54.756;9.400;2022-11-27T03:37:26;10.10;82.60
9057;DHT22;4563;54.756;9.400;2022-11-27T03:39:54;10.10;81.90
9057;DHT22;4563;54.756;9.400;2022-11-27T03:42:25;10.10;81.90
9057;DHT22;4563;54.756;9.400;2022-11-27T03:44:59;10.10;81.70
9057;DHT22;4563;54.756;9.400;2022-11-27T03:47:39;10.00;81.70
9057;DHT22;4563;54.756;9.400;2022-11-27T03:50:18;10.00;81.60
9057;DHT22;4563;54.756;9.400;2022-11-27T03:52:53;10.10;81.80
9057;DHT22;4563;54.756;9.400;2022-11-27T03:55:29;10.10;81.80
9057;DHT22;4563;54.756;9.400;2022-11-27T03:57:59;10.00;81.70
9057;DHT22;4563;54.756;9.400;2022-11-27T04:00:30;10.00;81.60
9057;DHT22;4563;54.756;9.400;2022-11-27T04:03:01;10.00;81.80
9057;DHT22;4563;54.756;9.400;2022-11-27T04:05:29;10.00;81.80
9057;DHT22;4563;54.756;9.400;2022-11-27T04:07:56;10.00;81.70
9057;DHT22;4563;54.756;9.400;2022-11-27T04:10:22;10.10;81.90
9057;DHT22;4563;54.756;9.400;2022-11-27T04:12:50;10.00;81.80
9057;DHT22;4563;54.756;9.400;2022-11-27T04:15:17;10.00;81.90
9057;DHT22;4563;54.756;9.400;2022-11-27T04:17:43;10.00;81.60
9057;DHT22;4563;54.756;9.400;2022-11-27T04:20:13;10.00;81.70
9057;DHT22;4563;54.756;9.400;2022-11-27T04:22:40;10.00;81.70
9057;DHT22;4563;54.756;9.400;2022-11-27T04:25:07;10.00;81.90
9057;DHT22;4563;54.756;9.400;2022-11-27T04:27:34;10.00;81.90
9057;DHT22;4563;54.756;9.400;2022-11-27T04:30:01;10.00;81.80
9057;DHT22;4563;54.756;9.400;2022-11-27T04:32:28;10.00;81.80
9057;DHT22;4563;54.756;9.400;2022-11-27T04:34:55;9.90;82.80
9057;DHT22;4563;54.756;9.400;2022-11-27T04:37:23;10.00;81.90
9057;DHT22;4563;54.756;9.400;2022-11-27T04:39:50;9.90;82.90
9057;DHT22;4563;54.756;9.400;2022-11-27T04:42:17;9.90;83.00
9057;DHT22;4563;54.756;9.400;2022-11-27T04:44:44;10.00;81.90
9057;DHT22;4563;54.756;9.400;2022-11-27T04:47:11;9.90;82.90
9057;DHT22;4563;54.756;9.400;2022-11-27T04:49:37;9.90;82.90
9057;DHT22;4563;54.756;9.400;2022-11-27T04:52:04;9.90;82.90
9057;DHT22;4563;54.756;9.400;2022-11-27T04:54:32;9.90;83.00
9057;DHT22;4563;54.756;9.400;2022-11-27T04:56:59;9.90;83.00
9057;DHT22;4563;54.756;9.400;2022-11-27T04:59:26;9.90;83.00
9057;DHT22;4563;54.756;9.400;2022-11-27T05:01:53;9.90;83.00
9057;DHT22;4563;54.756;9.400;2022-11-27T05:04:20;9.90;82.90
9057;DHT22;4563;54.756;9.400;2022-11-27T05:06:47;9.90;83.00
9057;DHT22;4563;54.756;9.400;2022-11-27T05:09:16;9.90;83.00
9057;DHT22;4563;54.756;9.400;2022-11-27T05:11:44;9.90;83.00
9057;DHT22;4563;54.756;9.400;2022-11-27T05:14:11;9.90;82.90
9057;DHT22;4563;54.756;9.400;2022-11-27T05:16:41;9.90;83.00
9057;DHT22;4563;54.756;9.400;2022-11-27T05:19:08;9.80;82.80
9057;DHT22;4563;54.756;9.400;2022-11-27T05:21:36;9.80;82.80
9057;DHT22;4563;54.756;9.400;2022-11-27T05:24:03;9.90;82.90
9057;DHT22;4563;54.756;9.400;2022-11-27T05:26:31;9.80;82.80
9057;DHT22;4563;54.756;9.400;2022-11-27T05:28:59;9.80;82.80
9057;DHT22;4563;54.756;9.400;2022-11-27T05:31:27;9.80;82.80
9057;DHT22;4563;54.756;9.400;2022-11-27T05:33:54;9.80;82.80
9057;DHT22;4563;54.756;9.400;2022-11-27T05:36:21;9.80;82.70
9057;DHT22;4563;54.756;9.400;2022-11-27T05:38:48;9.80;82.70
9057;DHT22;4563;54.756;9.400;2022-11-27T05:41:14;9.80;82.70
9057;DHT22;4563;54.756;9.400;2022-11-27T05:43:41;9.70;82.50
9057;DHT22;4563;54.756;9.400;2022-11-27T05:46:12;9.70;82.50
9057;DHT22;4563;54.756;9.400;2022-11-27T05:48:40;9.70;82.50
9057;DHT22;4563;54.756;9.400;2022-11-27T05:51:07;9.60;82.50
9057;DHT22;4563;54.756;9.400;2022-11-27T05:53:34;9.60;82.40
9057;DHT22;4563;54.756;9.400;2022-11-27T05:56:02;9.60;82.50
9057;DHT22;4563;54.756;9.400;2022-11-27T05:58:29;9.60;82.50
9057;DHT22;4563;54.756;9.400;2022-11-27T06:00:56;9.60;82.40
9057;DHT22;4563;54.756;9.400;2022-11-27T06:03:24;9.50;82.30
9057;DHT22;4563;54.756;9.400;2022-11-27T06:05:51;9.50;82.30
9057;DHT22;4563;54.756;9.400;2022-11-27T06:08:18;9.50;82.30
9057;DHT22;4563;54.756;9.400;2022-11-27T06:10:46;9.50;82.30
9057;DHT22;4563;54.756;9.400;2022-11-27T06:13:13;9.40;82.20
9057;DHT22;4563;54.756;9.400;2022-11-27T06:15:40;9.40;82.20
9057;DHT22;4563;54.756;9.400;2022-11-27T06:18:09;9.40;82.20
9057;DHT22;4563;54.756;9.400;2022-11-27T06:20:38;9.40;82.20
9057;DHT22;4563;54.756;9.400;2022-11-27T06:23:05;9.30;82.10
9057;DHT22;4563;54.756;9.400;2022-11-27T06:25:31;9.30;82.10
9057;DHT22;4563;54.756;9.400;2022-11-27T06:27:59;9.30;82.10
9057;DHT22;4563;54.756;9.400;2022-11-27T06:30:26;9.30;82.10
9057;DHT22;4563;54.756;9.400;2022-11-27T06:32:53;9.30;82.10
9057;DHT22;4563;54.756;9.400;2022-11-27T06:35:19;9.20;82.10
9057;DHT22;4563;54.756;9.400;2022-11-27T06:37:48;9.20;82.00
9057;DHT22;4563;54.756;9.400;2022-11-27T06:40:15;9.10;81.90
9057;DHT22;4563;54.756;9.400;2022-11-27T06:42:42;9.10;82.00
9057;DHT22;4563;54.756;9.400;2022-11-27T06:45:10;9.10;82.00
9057;DHT22;4563;54.756;9.400;2022-11-27T06:47:36;9.10;82.00
9057;DHT22;4563;54.756;9.400;2022-11-27T06:50:04;9.00;81.90
9057;DHT22;4563;54.756;9.400;2022-11-27T06:52:31;9.00;82.00
9057;DHT22;4563;54.756;9.400;2022-11-27T06:54:59;9.00;81.90
9057;DHT22;4563;54.756;9.400;2022-11-27T06:57:26;8.90;81.80
9057;DHT22;4563;54.756;9.400;2022-11-27T06:59:53;8.90;81.80
9057;DHT22;4563;54.756;9.400;2022-11-27T07:02:20;8.90;81.90
9057;DHT22;4563;54.756;9.400;2022-11-27T07:04:46;8.90;81.90
9057;DHT22;4563;54.756;9.400;2022-11-27T07:07:13;8.90;81.90
9057;DHT22;4563;54.756;9.400;2022-11-27T07:09:40;8.80;81.80
9057;DHT22;4563;54.756;9.400;2022-11-27T07:12:09;8.80;81.70
9057;DHT22;4563;54.756;9.400;2022-11-27T07:14:36;8.80;81.80
9057;DHT22;4563;54.756;9.400;2022-11-27T07:17:02;8.80;81.80
9057;DHT22;4563;54.756;9.400;2022-11-27T07:19:29;8.70;81.70
9057;DHT22;4563;54.756;9.400;2022-11-27T07:21:56;8.70;81.70
9057;DHT22;4563;54.756;9.400;2022-11-27T07:24:23;8.70;81.80
9057;DHT22;4563;54.756;9.400;2022-11-27T07:26:50;8.70;81.70
9057;DHT22;4563;54.756;9.400;2022-11-27T07:29:18;8.70;81.70
9057;DHT22;4563;54.756;9.400;2022-11-27T07:31:45;8.60;81.60
9057;DHT22;4563;54.756;9.400;2022-11-27T07:34:12;8.60;81.70
9057;DHT22;4563;54.756;9.400;2022-11-27T07:36:39;8.70;81.80
9057;DHT22;4563;54.756;9.400;2022-11-27T07:51:21;8.60;81.30
9057;DHT22;4563;54.756;9.400;2022-11-27T07:53:48;8.50;81.40
9057;DHT22;4563;54.756;9.400;2022-11-27T07:56:17;8.50;81.50
9057;DHT22;4563;54.756;9.400;2022-11-27T07:58:44;8.50;81.50
9057;DHT22;4563;54.756;9.400;2022-11-27T08:01:12;8.50;81.50
9057;DHT22;4563;54.756;9.400;2022-11-27T08:03:39;8.50;81.50
9057;DHT22;4563;54.756;9.400;2022-11-27T08:06:13;8.50;81.60
9057;DHT22;4563;54.756;9.400;2022-11-27T08:08:43;8.50;81.50
9057;DHT22;4563;54.756;9.400;2022-11-27T08:11:25;8.50;81.40
9057;DHT22;4563;54.756;9.400;2022-11-27T08:13:56;8.50;81.50
9057;DHT22;4563;54.756;9.400;2022-11-27T08:16:23;8.50;81.50
9057;DHT22;4563;54.756;9.400;2022-11-27T08:18:50;8.50;81.50
9057;DHT22;4563;54.756;9.400;2022-11-27T08:21:17;8.50;81.40
9057;DHT22;4563;54.756;9.400;2022-11-27T08:23:45;8.40;81.40
9057;DHT22;4563;54.756;9.400;2022-11-27T08:26:13;8.50;81.50
9057;DHT22;4563;54.756;9.400;2022-11-27T08:28:40;8.50;81.50
9057;DHT22;4563;54.756;9.400;2022-11-27T08:31:09;8.40;81.40
9057;DHT22;4563;54.756;9.400;2022-11-27T08:33:37;8.60;81.90
9057;DHT22;4563;54.756;9.400;2022-11-27T08:36:04;8.50;81.50
9057;DHT22;4563;54.756;9.400;2022-11-27T08:38:31;8.50;81.70
9057;DHT22;4563;54.756;9.400;2022-11-27T08:41:01;8.40;81.60
9057;DHT22;4563;54.756;9.400;2022-11-27T08:43:29;8.50;81.70
9057;DHT22;4563;54.756;9.400;2022-11-27T08:45:57;8.40;81.50
9057;DHT22;4563;54.756;9.400;2022-11-27T08:48:25;8.40;81.60
9057;DHT22;4563;54.756;9.400;2022-11-27T08:50:52;8.50;81.60
9057;DHT22;4563;54.756;9.400;2022-11-27T08:53:19;8.50;81.60
9057;DHT22;4563;54.756;9.400;2022-11-27T09:02:23;8.50;81.30
9057;DHT22;4563;54.756;9.400;2022-11-27T09:04:50;8.50;81.50
9057;DHT22;4563;54.756;9.400;2022-11-27T09:07:17;8.50;81.50
9057;DHT22;4563;54.756;9.400;2022-11-27T09:09:44;8.50;81.40
9057;DHT22;4563;54.756;9.400;2022-11-27T09:12:11;8.50;81.40
9057;DHT22;4563;54.756;9.400;2022-11-27T09:14:38;8.50;81.40
9057;DHT22;4563;54.756;9.400;2022-11-27T09:17:05;8.50;81.40
9057;DHT22;4563;54.756;9.400;2022-11-27T09:19:33;8.60;81.50
9057;DHT22;4563;54.756;9.400;2022-11-27T09:22:00;8.50;81.40
9057;DHT22;4563;54.756;9.400;2022-11-27T09:24:27;8.60;81.50
9057;DHT22;4563;54.756;9.400;2022-11-27T09:26:54;8.60;81.50
9057;DHT22;4563;54.756;9.400;2022-11-27T09:29:21;8.60;81.60
9057;DHT22;4563;54.756;9.400;2022-11-27T09:31:48;8.60;81.50
9057;DHT22;4563;54.756;9.400;2022-11-27T09:34:15;8.60;81.50
9057;DHT22;4563;54.756;9.400;2022-11-27T09:36:44;8.60;81.50
9057;DHT22;4563;54.756;9.400;2022-11-27T09:39:10;8.60;81.50
9057;DHT22;4563;54.756;9.400;2022-11-27T09:41:44;8.60;81.60
9057;DHT22;4563;54.756;9.400;2022-11-27T09:44:23;8.60;81.60
9057;DHT22;4563;54.756;9.400;2022-11-27T09:46:52;8.60;81.50
9057;DHT22;4563;54.756;9.400;2022-11-27T09:49:24;8.70;81.70
9057;DHT22;4563;54.756;9.400;2022-11-27T09:51:57;8.60;81.60
9057;DHT22;4563;54.756;9.400;2022-11-27T09:54:31;8.70;81.70
9057;DHT22;4563;54.756;9.400;2022-11-27T09:56:59;8.70;81.70
9057;DHT22;4563;54.756;9.400;2022-11-27T09:59:32;8.70;81.70
9057;DHT22;4563;54.756;9.400;2022-11-27T10:02:00;8.70;81.60
9057;DHT22;4563;54.756;9.400;2022-11-27T10:04:27;8.70;81.70
9057;DHT22;4563;54.756;9.400;2022-11-27T10:07:08;8.70;81.70
9057;DHT22;4563;54.756;9.400;2022-11-27T10:09:51;8.80;81.70
9057;DHT22;4563;54.756;9.400;2022-11-27T10:12:24;8.80;81.60
9057;DHT22;4563;54.756;9.400;2022-11-27T10:15:02;8.80;81.70
9057;DHT22;4563;54.756;9.400;2022-11-27T10:17:34;8.80;81.70
9057;DHT22;4563;54.756;9.400;2022-11-27T10:20:12;8.80;81.60
9057;DHT22;4563;54.756;9.400;2022-11-27T10:22:50;8.80;81.70
9057;DHT22;4563;54.756;9.400;2022-11-27T10:25:25;8.80;81.60
9057;DHT22;4563;54.756;9.400;2022-11-27T10:28:02;8.80;81.60
9057;DHT22;4563;54.756;9.400;2022-11-27T10:30:31;8.80;81.60
9057;DHT22;4563;54.756;9.400;2022-11-27T10:33:03;8.80;81.60
9057;DHT22;4563;54.756;9.400;2022-11-27T10:35:39;8.80;81.60
9057;DHT22;4563;54.756;9.400;2022-11-27T10:38:13;8.80;81.50
9057;DHT22;4563;54.756;9.400;2022-11-27T10:40:46;8.80;81.50
9057;DHT22;4563;54.756;9.400;2022-11-27T10:43:18;8.80;81.50
9057;DHT22;4563;54.756;9.400;2022-11-27T10:45:48;8.80;81.40
9057;DHT22;4563;54.756;9.400;2022-11-27T10:48:16;8.90;82.20
9057;DHT22;4563;54.756;9.400;2022-11-27T10:50:43;8.80;81.40
9057;DHT22;4563;54.756;9.400;2022-11-27T10:53:17;8.80;81.40
9057;DHT22;4563;54.756;9.400;2022-11-27T10:55:57;8.80;81.30
9057;DHT22;4563;54.756;9.400;2022-11-27T10:58:31;8.90;81.30
9057;DHT22;4563;54.756;9.400;2022-11-27T11:01:00;8.80;81.30
9057;DHT22;4563;54.756;9.400;2022-11-27T11:03:27;8.90;81.40
9057;DHT22;4563;54.756;9.400;2022-11-27T11:05:58;8.90;81.30
9057;DHT22;4563;54.756;9.400;2022-11-27T11:08:27;8.90;81.40
9057;DHT22;4563;54.756;9.400;2022-11-27T11:11:00;8.90;81.20
9057;DHT22;4563;54.756;9.400;2022-11-27T11:13:28;8.90;81.20
9057;DHT22;4563;54.756;9.400;2022-11-27T11:15:58;8.90;81.20
9057;DHT22;4563;54.756;9.400;2022-11-27T11:18:27;8.90;81.10
9057;DHT22;4563;54.756;9.400;2022-11-27T11:20:57;8.90;81.00
9057;DHT22;4563;54.756;9.400;2022-11-27T11:23:29;8.90;81.00
9057;DHT22;4563;54.756;9.400;2022-11-27T11:26:01;8.90;81.00
9057;DHT22;4563;54.756;9.400;2022-11-27T11:28:29;8.90;80.90
9057;DHT22;4563;54.756;9.400;2022-11-27T11:30:59;8.90;81.00
9057;DHT22;4563;54.756;9.400;2022-11-27T11:33:28;8.90;80.90
9057;DHT22;4563;54.756;9.400;2022-11-27T11:36:05;8.90;80.90
9057;DHT22;4563;54.756;9.400;2022-11-27T11:38:35;8.90;80.90
9057;DHT22;4563;54.756;9.400;2022-11-27T11:41:05;8.90;80.90
9057;DHT22;4563;54.756;9.400;2022-11-27T11:43:35;8.90;80.90
9057;DHT22;4563;54.756;9.400;2022-11-27T11:46:06;8.90;80.90
9057;DHT22;4563;54.756;9.400;2022-11-27T11:48:34;8.90;80.90
9057;DHT22;4563;54.756;9.400;2022-11-27T11:51:07;8.90;80.90
9057;DHT22;4563;54.756;9.400;2022-11-27T11:53:41;8.90;80.90
9057;DHT22;4563;54.756;9.400;2022-11-27T11:56:22;8.90;80.90
9057;DHT22;4563;54.756;9.400;2022-11-27T11:58:55;8.90;80.90
9057;DHT22;4563;54.756;9.400;2022-11-27T12:01:53;8.90;80.90
9057;DHT22;4563;54.756;9.400;2022-11-27T12:04:37;9.00;81.00
9057;DHT22;4563;54.756;9.400;2022-11-27T12:07:15;8.90;80.90
9057;DHT22;4563;54.756;9.400;2022-11-27T12:09:54;8.90;80.90
9057;DHT22;4563;54.756;9.400;2022-11-27T12:12:41;8.90;80.90
9057;DHT22;4563;54.756;9.400;2022-11-27T12:15:17;8.90;80.90
9057;DHT22;4563;54.756;9.400;2022-11-27T12:17:54;9.00;81.00
9057;DHT22;4563;54.756;9.400;2022-11-27T12:20:28;9.00;80.90
9057;DHT22;4563;54.756;9.400;2022-11-27T12:23:23;8.90;80.90
9057;DHT22;4563;54.756;9.400;2022-11-27T12:26:03;9.00;80.80
9057;DHT22;4563;54.756;9.400;2022-11-27T12:28:45;9.00;81.00
9057;DHT22;4563;54.756;9.400;2022-11-27T12:31:22;9.00;80.90
9057;DHT22;4563;54.756;9.400;2022-11-27T12:33:59;9.00;80.90
9057;DHT22;4563;54.756;9.400;2022-11-27T12:36:54;9.00;80.80
9057;DHT22;4563;54.756;9.400;2022-11-27T12:39:24;9.00;80.80
9057;DHT22;4563;54.756;9.400;2022-11-27T12:42:03;8.90;80.80
9057;DHT22;4563;54.756;9.400;2022-11-27T12:44:39;8.90;80.70
9057;DHT22;4563;54.756;9.400;2022-11-27T12:47:14;8.90;80.70
9057;DHT22;4563;54.756;9.400;2022-11-27T12:49:45;8.90;80.70
9057;DHT22;4563;54.756;9.400;2022-11-27T12:52:16;8.90;80.70
9057;DHT22;4563;54.756;9.400;2022-11-27T12:54:49;8.90;80.70
9057;DHT22;4563;54.756;9.400;2022-11-27T12:57:22;8.90;80.60
9057;DHT22;4563;54.756;9.400;2022-11-27T12:59:55;8.90;80.60
9057;DHT22;4563;54.756;9.400;2022-11-27T13:02:28;8.90;80.60
9057;DHT22;4563;54.756;9.400;2022-11-27T13:05:00;8.90;80.50
9057;DHT22;4563;54.756;9.400;2022-11-27T13:07:33;8.90;81.30
9057;DHT22;4563;54.756;9.400;2022-11-27T13:10:11;9.00;80.70
9057;DHT22;4563;54.756;9.400;2022-11-27T13:12:43;8.90;80.50
9057;DHT22;4563;54.756;9.400;2022-11-27T13:15:20;8.90;80.50
9057;DHT22;4563;54.756;9.400;2022-11-27T13:17:53;8.90;80.40
9057;DHT22;4563;54.756;9.400;2022-11-27T13:20:27;8.90;80.50
9057;DHT22;4563;54.756;9.400;2022-11-27T13:22:55;8.90;80.50
9057;DHT22;4563;54.756;9.400;2022-11-27T13:25:22;9.00;80.40
9057;DHT22;4563;54.756;9.400;2022-11-27T13:27:52;8.90;80.40
9057;DHT22;4563;54.756;9.400;2022-11-27T13:30:21;8.90;80.40
9057;DHT22;4563;54.756;9.400;2022-11-27T13:32:50;8.90;80.40
9057;DHT22;4563;54.756;9.400;2022-11-27T13:35:20;8.90;80.30
9057;DHT22;4563;54.756;9.400;2022-11-27T13:37:52;8.90;80.30
9057;DHT22;4563;54.756;9.400;2022-11-27T13:40:23;8.90;80.20
9057;DHT22;4563;54.756;9.400;2022-11-27T13:42:55;8.90;80.20
9057;DHT22;4563;54.756;9.400;2022-11-27T13:45:25;8.90;80.20
9057;DHT22;4563;54.756;9.400;2022-11-27T13:47:54;8.90;80.30
9057;DHT22;4563;54.756;9.400;2022-11-27T13:50:24;8.90;80.20
9057;DHT22;4563;54.756;9.400;2022-11-27T13:52:54;8.90;80.20
9057;DHT22;4563;54.756;9.400;2022-11-27T13:55:26;8.90;80.90
9057;DHT22;4563;54.756;9.400;2022-11-27T13:57:56;8.90;80.20
9057;DHT22;4563;54.756;9.400;2022-11-27T14:00:31;8.90;80.20
9057;DHT22;4563;54.756;9.400;2022-11-27T14:02:59;8.80;80.20
9057;DHT22;4563;54.756;9.400;2022-11-27T14:05:35;8.90;80.20
9057;DHT22;4563;54.756;9.400;2022-11-27T14:08:16;8.80;80.10
9057;DHT22;4563;54.756;9.400;2022-11-27T14:10:53;8.80;80.10
9057;DHT22;4563;54.756;9.400;2022-11-27T14:13:34;8.80;80.10
9057;DHT22;4563;54.756;9.400;2022-11-27T14:16:06;8.80;80.10
9057;DHT22;4563;54.756;9.400;2022-11-27T14:18:35;8.80;80.10
9057;DHT22;4563;54.756;9.400;2022-11-27T14:21:03;8.80;80.10
9057;DHT22;4563;54.756;9.400;2022-11-27T14:23:31;8.80;80.10
9057;DHT22;4563;54.756;9.400;2022-11-27T14:26:18;8.80;80.10
9057;DHT22;4563;54.756;9.400;2022-11-27T14:28:48;8.80;80.10
9057;DHT22;4563;54.756;9.400;2022-11-27T14:31:22;8.70;79.90
9057;DHT22;4563;54.756;9.400;2022-11-27T14:33:51;8.70;80.00
9057;DHT22;4563;54.756;9.400;2022-11-27T14:36:21;8.80;80.00
9057;DHT22;4563;54.756;9.400;2022-11-27T14:38:49;8.70;79.90
9057;DHT22;4563;54.756;9.400;2022-11-27T14:41:19;8.80;80.00
9057;DHT22;4563;54.756;9.400;2022-11-27T14:43:58;8.70;79.90
9057;DHT22;4563;54.756;9.400;2022-11-27T14:46:25;8.70;79.90
9057;DHT22;4563;54.756;9.400;2022-11-27T14:48:53;8.70;79.90
9057;DHT22;4563;54.756;9.400;2022-11-27T14:51:22;8.70;79.90
9057;DHT22;4563;54.756;9.400;2022-11-27T14:53:58;8.70;79.90
9057;DHT22;4563;54.756;9.400;2022-11-27T14:56:28;8.70;79.90
9057;DHT22;4563;54.756;9.400;2022-11-27T14:58:59;8.70;79.80
9057;DHT22;4563;54.756;9.400;2022-11-27T15:01:28;8.70;79.80
9057;DHT22;4563;54.756;9.400;2022-11-27T15:03:56;8.70;79.80
9057;DHT22;4563;54.756;9.400;2022-11-27T15:06:24;8.70;79.80
9057;DHT22;4563;54.756;9.400;2022-11-27T15:08:52;8.70;79.80
9057;DHT22;4563;54.756;9.400;2022-11-27T15:11:21;8.70;79.70
9057;DHT22;4563;54.756;9.400;2022-11-27T15:13:53;8.70;79.80
9057;DHT22;4563;54.756;9.400;2022-11-27T15:16:23;8.70;79.70
9057;DHT22;4563;54.756;9.400;2022-11-27T15:18:53;8.70;79.80
9057;DHT22;4563;54.756;9.400;2022-11-27T15:21:22;8.70;79.80
9057;DHT22;4563;54.756;9.400;2022-11-27T15:23:53;8.70;79.80
9057;DHT22;4563;54.756;9.400;2022-11-27T15:26:31;8.60;80.40
9057;DHT22;4563;54.756;9.400;2022-11-27T15:28:59;8.70;79.70
9057;DHT22;4563;54.756;9.400;2022-11-27T15:31:33;8.70;79.70
9057;DHT22;4563;54.756;9.400;2022-11-27T15:34:04;8.60;79.60
9057;DHT22;4563;54.756;9.400;2022-11-27T15:36:37;8.60;79.60
9057;DHT22;4563;54.756;9.400;2022-11-27T15:39:20;8.60;79.60
9057;DHT22;4563;54.756;9.400;2022-11-27T15:41:55;8.70;79.80
9057;DHT22;4563;54.756;9.400;2022-11-27T15:44:23;8.60;79.70
9057;DHT22;4563;54.756;9.400;2022-11-27T15:46:52;8.60;79.70
9057;DHT22;4563;54.756;9.400;2022-11-27T15:49:20;8.60;79.60
9057;DHT22;4563;54.756;9.400;2022-11-27T15:51:48;8.60;79.50
9057;DHT22;4563;54.756;9.400;2022-11-27T15:54:15;8.60;79.60
9057;DHT22;4563;54.756;9.400;2022-11-27T15:56:42;8.60;79.60
9057;DHT22;4563;54.756;9.400;2022-11-27T15:59:11;8.60;79.50
9057;DHT22;4563;54.756;9.400;2022-11-27T16:01:38;8.60;79.50
9057;DHT22;4563;54.756;9.400;2022-11-27T16:04:06;8.60;79.50
9057;DHT22;4563;54.756;9.400;2022-11-27T16:06:34;8.60;79.50
9057;DHT22;4563;54.756;9.400;2022-11-27T16:09:02;8.60;79.50
9057;DHT22;4563;54.756;9.400;2022-11-27T16:11:30;8.60;79.50
9057;DHT22;4563;54.756;9.400;2022-11-27T16:13:57;8.60;79.50
9057;DHT22;4563;54.756;9.400;2022-11-27T16:16:25;8.60;79.50
9057;DHT22;4563;54.756;9.400;2022-11-27T16:18:55;8.60;79.50
9057;DHT22;4563;54.756;9.400;2022-11-27T16:21:23;8.60;79.50
9057;DHT22;4563;54.756;9.400;2022-11-27T16:23:50;8.60;79.50
9057;DHT22;4563;54.756;9.400;2022-11-27T16:26:17;8.60;79.40
9057;DHT22;4563;54.756;9.400;2022-11-27T16:28:44;8.60;79.50
9057;DHT22;4563;54.756;9.400;2022-11-27T16:31:11;8.60;79.50
9057;DHT22;4563;54.756;9.400;2022-11-27T16:33:39;8.60;79.40
9057;DHT22;4563;54.756;9.400;2022-11-27T16:36:08;8.60;79.50
9057;DHT22;4563;54.756;9.400;2022-11-27T16:38:37;8.60;79.50
9057;DHT22;4563;54.756;9.400;2022-11-27T16:41:07;8.60;79.50
9057;DHT22;4563;54.756;9.400;2022-11-27T16:43:36;8.60;79.50
9057;DHT22;4563;54.756;9.400;2022-11-27T16:46:04;8.60;79.50
9057;DHT22;4563;54.756;9.400;2022-11-27T16:48:32;8.60;79.40
9057;DHT22;4563;54.756;9.400;2022-11-27T16:51:02;8.60;79.40
9057;DHT22;4563;54.756;9.400;2022-11-27T16:53:29;8.60;79.40
9057;DHT22;4563;54.756;9.400;2022-11-27T16:55:58;8.70;79.50